Time;durP1;ratioP1;P1;durP2;ratioP2;P2;SDS_P1;SDS_P2;PMS_P1;PMS_P2;Temp;Humidity;BMP_temperature;BMP_pressure;BME280_temperature;BME280_humidity;BME280_pressure;Samples;Min_cycle;Max_cycle;Signal;HPM_P1;HPM_P2
2023/09/09 00:01:08;;;;;;;11.83;7.50;;;;;;;-141.97;78.28;47484.47;5031400;28;20571;-87
2023/09/09 00:03:34;;;;;;;11.97;7.60;;;;;;;-141.97;78.71;47501.78;5031346;28;20181;-87
2023/09/09 00:06:08;;;;;;;14.40;7.73;;;;;;;-141.97;78.94;47540.22;5033783;28;20596;-87
2023/09/09 00:08:33;;;;;;;14.80;7.53;;;;;;;-141.97;78.71;47499.84;5033465;28;20174;-89
2023/09/09 00:10:59;;;;;;;12.10;7.60;;;;;;;-141.97;79.18;47592.13;5037826;28;20578;-88
2023/09/09 00:13:25;;;;;;;12.67;7.53;;;;;;;-141.97;78.77;47703.59;5038605;28;20174;-89
2023/09/09 00:15:54;;;;;;;11.87;7.60;;;;;;;-141.97;78.83;47580.59;5037218;28;20268;-85
2023/09/09 00:18:19;;;;;;;10.50;7.43;;;;;;;-141.97;78.62;47713.22;5032293;28;20166;-86
2023/09/09 00:20:44;;;;;;;12.70;7.70;;;;;;;-141.97;78.65;47549.84;5031593;28;20619;-84
2023/09/09 00:23:10;;;;;;;12.50;7.30;;;;;;;-141.97;79.11;47436.44;5030106;28;20182;-84
2023/09/09 00:25:36;;;;;;;11.50;7.47;;;;;;;-141.97;78.07;47474.88;5030816;28;20543;-85
2023/09/09 00:28:02;;;;;;;11.60;7.63;;;;;;;-141.97;77.89;47563.28;5031325;28;20166;-85
2023/09/09 00:30:29;;;;;;;14.07;7.60;;;;;;;-141.97;78.58;47390.31;5032152;28;20220;-85
2023/09/09 00:32:54;;;;;;;12.03;7.50;;;;;;;-141.97;79.16;47569.06;5031706;28;20185;-85
2023/09/09 00:35:20;;;;;;;11.17;7.17;;;;;;;-141.97;79.06;47586.34;5030496;28;20253;-85
2023/09/09 00:37:45;;;;;;;11.87;7.90;;;;;;;-141.97;78.59;47515.22;5032012;28;20181;-87
2023/09/09 00:40:12;;;;;;;13.77;7.67;;;;;;;-141.97;78.43;47486.41;5032021;28;20619;-87
2023/09/09 00:42:37;;;;;;;11.63;7.70;;;;;;;-141.97;78.81;47447.97;5030371;28;20544;-86
2023/09/09 00:45:03;;;;;;;11.43;7.57;;;;;;;-141.97;78.13;47592.13;5031122;28;20166;-86
2023/09/09 00:47:29;;;;;;;12.73;7.50;;;;;;;-141.97;77.65;47738.19;5030674;28;20548;-85
2023/09/09 00:49:54;;;;;;;9.13;7.03;;;;;;;-141.97;77.22;47449.88;5030020;28;20170;-88
2023/09/09 00:52:20;;;;;;;10.93;7.60;;;;;;;-141.97;77.46;47384.53;5030268;28;20178;-87
2023/09/09 00:54:47;;;;;;;11.57;7.47;;;;;;;-141.97;77.31;47563.28;5031749;28;20603;-87
2023/09/09 00:57:13;;;;;;;12.90;7.60;;;;;;;-141.97;77.77;47465.25;5030301;28;20176;-88
2023/09/09 00:59:38;;;;;;;10.93;7.67;;;;;;;-141.97;77.62;47392.22;5029956;28;20572;-88
2023/09/09 01:02:04;;;;;;;11.87;7.80;;;;;;;-141.97;77.53;47740.13;5030151;28;20196;-87
2023/09/09 01:04:29;;;;;;;13.97;7.53;;;;;;;-141.97;77.31;47494.09;5029922;28;20259;-87
2023/09/09 01:07:00;;;;;;;13.73;7.57;;;;;;;-141.97;77.60;47530.59;5030221;28;20589;-86
2023/09/09 01:09:25;;;;;;;11.43;7.70;;;;;;;-141.97;77.54;47488.31;5028963;28;20256;-88
2023/09/09 01:11:50;;;;;;;14.27;7.90;;;;;;;-141.97;77.67;47434.50;5029381;28;20170;-89
2023/09/09 01:14:16;;;;;;;13.83;8.00;;;;;;;-141.97;77.85;47619.03;5040383;28;20555;-88
2023/09/09 01:16:43;;;;;;;11.20;8.23;;;;;;;-141.97;77.02;47488.31;5055007;28;20162;-87
2023/09/09 01:19:11;;;;;;;12.17;8.37;;;;;;;-141.97;77.24;47546.00;5045269;28;20165;-87
2023/09/09 01:21:40;;;;;;;14.03;8.20;;;;;;;-141.97;77.26;47492.16;5033207;28;20248;-88
2023/09/09 01:24:06;;;;;;;14.27;8.40;;;;;;;-141.97;76.57;47557.53;5031733;28;20181;-87
2023/09/09 01:26:31;;;;;;;14.93;8.13;;;;;;;-141.97;76.18;47461.41;5030156;28;20166;-87
2023/09/09 01:28:57;;;;;;;10.30;7.73;;;;;;;-141.97;76.13;47490.25;5029778;28;20265;-88
2023/09/09 01:31:22;;;;;;;10.53;8.03;;;;;;;-141.97;75.91;47678.63;5029374;28;20170;-88
2023/09/09 01:33:48;;;;;;;12.83;8.10;;;;;;;-141.97;76.10;47419.13;5029478;28;20715;-88
2023/09/09 01:36:14;;;;;;;14.47;8.50;;;;;;;-141.97;75.81;47484.47;5030396;28;20256;-88
2023/09/09 01:38:39;;;;;;;15.90;8.47;;;;;;;-141.97;75.74;47403.75;5014482;28;20590;-88
2023/09/09 01:41:05;;;;;;;11.97;7.90;;;;;;;-141.97;75.21;47695.91;5035187;28;20201;-88
2023/09/09 01:43:30;;;;;;;11.80;8.30;;;;;;;-141.97;75.47;47745.88;5029937;28;20280;-88
2023/09/09 01:45:55;;;;;;;13.17;9.10;;;;;;;-141.97;75.47;47449.88;5031821;28;20166;-88
2023/09/09 01:48:21;;;;;;;17.27;8.50;;;;;;;-141.97;75.78;47478.72;5030926;28;20235;-88
2023/09/09 01:50:46;;;;;;;12.00;8.60;;;;;;;-141.97;75.57;47578.66;5030597;28;20178;-87
2023/09/09 01:53:12;;;;;;;13.10;8.57;;;;;;;-141.97;75.56;47482.56;5031984;28;20303;-87
2023/09/09 01:55:37;;;;;;;13.53;8.57;;;;;;;-141.97;75.12;47742.03;5030021;28;20269;-87
2023/09/09 01:58:03;;;;;;;13.20;8.40;;;;;;;-141.97;75.19;47592.13;5045899;28;20275;-88
2023/09/09 02:00:29;;;;;;;14.23;8.30;;;;;;;-141.97;74.79;47607.50;5029099;28;20638;-88
2023/09/09 02:02:55;;;;;;;12.93;8.17;;;;;;;-141.97;75.01;47749.72;5030717;28;20219;-87
2023/09/09 02:05:20;;;;;;;14.07;9.23;;;;;;;-141.97;74.79;47715.13;5029929;28;20166;-87
2023/09/09 02:07:46;;;;;;;13.83;8.33;;;;;;;-141.97;74.60;47724.75;5039375;28;20170;-84
2023/09/09 02:10:11;;;;;;;11.50;7.50;;;;;;;-141.97;74.88;47497.94;5034375;28;20166;-88
2023/09/09 02:12:37;;;;;;;12.40;8.17;;;;;;;-141.97;75.02;47707.44;5029206;28;20184;-87
2023/09/09 02:15:02;;;;;;;13.03;8.20;;;;;;;-141.97;75.79;47640.16;5029080;28;20166;-84
2023/09/09 02:17:28;;;;;;;12.37;8.17;;;;;;;-141.97;75.88;47542.16;5030480;28;20163;-85
2023/09/09 02:19:55;;;;;;;13.13;8.63;;;;;;;-141.97;76.86;47605.56;5030353;28;20587;-85
2023/09/09 02:22:21;;;;;;;18.30;8.33;;;;;;;-141.97;77.29;47551.75;5028994;28;20201;-84
2023/09/09 02:24:47;;;;;;;11.43;8.13;;;;;;;-141.97;77.75;47434.50;5030212;28;20224;-86
2023/09/09 02:27:12;;;;;;;14.77;8.23;;;;;;;-141.97;78.14;47547.91;5030291;28;20169;-86
2023/09/09 02:29:38;;;;;;;13.37;8.50;;;;;;;-141.97;78.54;47484.47;5034046;28;20166;-85
2023/09/09 02:32:04;;;;;;;13.50;9.17;;;;;;;-141.97;79.77;47407.59;5033911;28;20177;-84
2023/09/09 02:34:29;;;;;;;14.20;9.00;;;;;;;-141.97;79.58;47447.97;5033921;28;20213;-85
2023/09/09 02:37:14;;;;;;;12.73;8.40;;;;;;;-141.97;79.40;47576.75;5034030;28;20175;-85
2023/09/09 02:39:41;;;;;;;13.20;8.33;;;;;;;-141.97;79.02;47720.91;5033861;28;20245;-86
2023/09/09 02:42:07;;;;;;;13.83;8.67;;;;;;;-141.97;79.43;47551.75;5033645;28;20733;-86
2023/09/09 02:44:32;;;;;;;12.83;8.60;;;;;;;-141.97;79.72;47582.50;5033820;28;20161;-85
2023/09/09 02:46:58;;;;;;;17.23;8.70;;;;;;;-141.97;80.10;47522.91;5034475;28;20185;-86
2023/09/09 02:49:23;;;;;;;14.13;8.50;;;;;;;-141.97;79.75;47592.13;5033753;28;20624;-84
2023/09/09 02:51:48;;;;;;;13.67;9.00;;;;;;;-141.97;80.12;47592.13;5034650;28;20253;-85
2023/09/09 02:54:14;;;;;;;12.37;8.80;;;;;;;-141.97;80.51;47526.75;5033807;28;20545;-86
2023/09/09 02:56:39;;;;;;;13.20;9.00;;;;;;;-141.97;80.65;47667.06;5033998;28;20241;-85
2023/09/09 02:59:04;;;;;;;13.73;8.50;;;;;;;-141.97;80.65;47553.69;5033940;28;20269;-85
2023/09/09 03:01:31;;;;;;;12.27;8.40;;;;;;;-141.97;80.82;47438.34;5033301;28;20194;-85
2023/09/09 03:03:56;;;;;;;17.33;9.07;;;;;;;-141.97;80.97;47676.69;5033888;28;20170;-87
2023/09/09 03:06:21;;;;;;;13.03;9.30;;;;;;;-141.97;81.09;47572.91;5033504;28;20173;-85
2023/09/09 03:08:47;;;;;;;13.00;8.93;;;;;;;-141.97;81.10;47757.41;5032392;28;20261;-88
2023/09/09 03:11:12;;;;;;;18.43;9.67;;;;;;;-141.97;81.77;47472.94;5032687;28;20182;-88
2023/09/09 03:13:38;;;;;;;13.00;9.37;;;;;;;-141.97;81.63;47628.63;5034023;28;20163;-87
2023/09/09 03:16:03;;;;;;;14.20;9.60;;;;;;;-141.97;81.86;47480.63;5031821;28;20527;-86
2023/09/09 03:18:29;;;;;;;11.83;9.80;;;;;;;-141.97;82.02;47540.22;5031915;28;20217;-87
2023/09/09 03:20:54;;;;;;;13.73;9.80;;;;;;;-141.97;82.70;47680.53;5031364;28;20640;-87
2023/09/09 03:23:20;;;;;;;17.77;9.83;;;;;;;-141.97;83.06;47694.00;5031958;28;20182;-88
2023/09/09 03:25:45;;;;;;;16.47;10.40;;;;;;;-141.97;84.02;47576.75;5035843;28;20215;-87
2023/09/09 03:28:10;;;;;;;14.57;11.07;;;;;;;-141.97;84.88;47521.00;5034081;28;20602;-86
2023/09/09 03:31:12;;;;;;;17.80;11.47;;;;;;;-141.97;85.31;47365.31;5033596;28;20540;-86
2023/09/09 03:33:38;;;;;;;16.20;10.90;;;;;;;-141.97;85.55;47467.19;4954858;29;20355;-87
2023/09/09 03:36:04;;;;;;;17.90;10.87;;;;;;;-141.97;86.50;47659.38;4953072;29;20196;-87
2023/09/09 03:38:30;;;;;;;18.07;11.87;;;;;;;-141.97;87.88;47524.84;4936138;29;20189;-87
2023/09/09 03:40:55;;;;;;;17.73;12.27;;;;;;;-141.97;89.67;47695.91;4955385;28;20224;-86
2023/09/09 03:43:20;;;;;;;22.60;13.27;;;;;;;-141.97;91.21;47561.38;4971980;28;20231;-87
2023/09/09 03:45:46;;;;;;;22.57;13.13;;;;;;;-141.97;95.68;47471.03;4971798;28;20275;-87
2023/09/09 03:48:12;;;;;;;21.33;14.03;;;;;;;-141.97;97.50;47463.34;4955533;28;20200;-87
2023/09/09 03:50:37;;;;;;;23.27;13.73;;;;;;;-141.97;98.18;47738.19;4955679;28;20179;-86
2023/09/09 03:53:03;;;;;;;20.80;13.67;;;;;;;-141.97;98.04;47415.28;4971375;28;20869;-85
2023/09/09 03:55:28;;;;;;;22.37;14.27;;;;;;;-141.97;98.06;47692.06;4972664;28;20196;-86
2023/09/09 03:57:54;;;;;;;22.90;14.40;;;;;;;-141.97;98.62;47749.72;4982680;28;20186;-88
2023/09/09 04:00:19;;;;;;;21.67;14.60;;;;;;;-141.97;99.34;47597.88;4959908;28;20196;-88
2023/09/09 04:02:45;;;;;;;21.27;14.50;;;;;;;-141.97;99.37;47607.50;4984621;28;20176;-86
2023/09/09 04:05:10;;;;;;;22.50;15.30;;;;;;;-141.97;99.69;47611.34;4983407;28;20582;-88
2023/09/09 04:07:36;;;;;;;26.37;15.03;;;;;;;-141.97;99.64;47538.28;4985281;28;20187;-87
2023/09/09 04:10:02;;;;;;;23.67;15.40;;;;;;;-141.97;100.00;47511.38;5012926;28;20258;-88
2023/09/09 04:12:28;;;;;;;24.07;14.97;;;;;;;-141.97;99.50;47459.50;5027562;28;20673;-87
2023/09/09 04:14:53;;;;;;;21.63;14.93;;;;;;;-141.97;98.17;47765.09;5031416;28;20261;-83
2023/09/09 04:17:19;;;;;;;31.97;15.37;;;;;;;-141.97;96.60;47546.00;5031757;28;20168;-83
2023/09/09 04:19:47;;;;;;;21.77;14.17;;;;;;;-141.97;95.32;47601.72;5034492;28;20174;-86
2023/09/09 04:22:13;;;;;;;26.20;14.30;;;;;;;-141.97;95.02;47486.41;5031285;28;20206;-86
2023/09/09 04:24:38;;;;;;;21.37;13.77;;;;;;;-141.97;94.26;47649.78;5031128;28;20568;-88
2023/09/09 04:27:04;;;;;;;23.50;14.37;;;;;;;-141.97;93.99;47601.72;5031937;28;20250;-83
2023/09/09 04:29:29;;;;;;;21.20;14.00;;;;;;;-141.97;93.50;47572.91;5031853;28;20219;-84
2023/09/09 04:31:55;;;;;;;23.03;12.97;;;;;;;-141.97;92.92;47586.34;5031634;28;20169;-86
2023/09/09 04:34:20;;;;;;;18.40;12.70;;;;;;;-141.97;93.18;47730.50;5031771;28;20181;-86
2023/09/09 04:36:46;;;;;;;17.93;13.20;;;;;;;-141.97;92.53;47601.72;5031685;28;20245;-86
2023/09/09 04:39:15;;;;;;;21.67;13.40;;;;;;;-141.97;92.04;47403.75;5031437;28;20158;-86
2023/09/09 04:41:41;;;;;;;21.73;13.17;;;;;;;-141.97;91.83;47663.22;5030165;28;20704;-85
2023/09/09 04:44:07;;;;;;;21.43;12.73;;;;;;;-141.97;91.60;47496.00;4992551;28;20241;-84
2023/09/09 04:46:32;;;;;;;20.87;13.63;;;;;;;-141.97;91.89;47715.13;4992469;28;20156;-84
2023/09/09 04:48:57;;;;;;;27.27;13.83;;;;;;;-141.97;91.13;47461.41;4990647;28;20175;-88
2023/09/09 04:51:23;;;;;;;26.10;14.30;;;;;;;-141.97;91.58;47613.25;4989867;28;20207;-86
2023/09/09 04:53:50;;;;;;;24.17;14.67;;;;;;;-141.97;90.83;47576.75;4990610;28;20615;-87
2023/09/09 04:56:15;;;;;;;21.70;15.07;;;;;;;-141.97;90.20;47492.16;4991902;28;20159;-86
2023/09/09 04:58:41;;;;;;;22.33;14.33;;;;;;;-141.97;89.95;47634.41;4990649;28;20179;-86
2023/09/09 05:01:06;;;;;;;23.33;14.70;;;;;;;-141.97;89.63;47492.16;4991798;28;20195;-87
2023/09/09 05:03:32;;;;;;;20.37;14.00;;;;;;;-141.97;88.68;47576.75;4991689;28;20168;-87
2023/09/09 05:05:57;;;;;;;22.83;14.90;;;;;;;-141.97;88.28;47772.78;4992371;28;20199;-88
2023/09/09 05:08:23;;;;;;;20.23;13.97;;;;;;;-141.97;87.81;47526.75;4991643;28;20171;-87
2023/09/09 05:10:48;;;;;;;20.70;13.33;;;;;;;-141.97;87.07;47472.94;4991809;28;20167;-88
2023/09/09 05:13:13;;;;;;;24.20;13.07;;;;;;;-141.97;86.55;47398.00;4991962;28;20182;-87
2023/09/09 05:15:39;;;;;;;21.50;13.27;;;;;;;-141.97;85.92;47507.53;4992283;28;20593;-87
2023/09/09 05:18:04;;;;;;;19.67;12.60;;;;;;;-141.97;85.96;47699.75;4991734;28;20179;-85
2023/09/09 05:20:30;;;;;;;19.37;13.03;;;;;;;-141.97;86.07;47788.19;4993311;28;20167;-86
2023/09/09 05:22:55;;;;;;;23.70;12.80;;;;;;;-141.97;85.54;47586.34;5010227;28;20183;-86
2023/09/09 05:25:21;;;;;;;24.13;13.07;;;;;;;-141.97;84.99;47430.66;4991404;28;20171;-87
2023/09/09 05:27:46;;;;;;;18.23;13.07;;;;;;;-141.97;85.63;47615.19;4990412;28;20173;-87
2023/09/09 05:30:12;;;;;;;19.10;12.73;;;;;;;-141.97;84.96;47692.06;4990619;28;20248;-87
2023/09/09 05:32:37;;;;;;;18.57;12.77;;;;;;;-141.97;84.72;47421.06;4992212;28;20176;-87
2023/09/09 05:35:04;;;;;;;22.90;14.07;;;;;;;-141.97;84.78;47496.00;4998201;28;20617;-85
2023/09/09 05:37:30;;;;;;;48.43;34.40;;;;;;;-141.97;86.58;47670.91;5010126;28;20179;-85
2023/09/09 05:40:01;;;;;;;31.00;21.80;;;;;;;-141.97;85.79;47680.53;5000675;28;20268;-86
2023/09/09 05:42:29;;;;;;;27.00;16.33;;;;;;;-141.97;86.56;47615.19;5025681;28;20737;-86
2023/09/09 05:44:54;;;;;;;24.63;15.63;;;;;;;-141.97;86.03;47699.75;5029540;28;20183;-86
2023/09/09 05:47:19;;;;;;;24.13;15.03;;;;;;;-141.97;85.70;47584.44;5030698;28;20649;-87
2023/09/09 05:49:45;;;;;;;24.03;15.00;;;;;;;-141.97;84.46;47592.13;5030427;28;20174;-87
2023/09/09 05:52:12;;;;;;;23.27;14.53;;;;;;;-141.97;84.38;47749.72;5030548;28;20236;-86
2023/09/09 05:54:38;;;;;;;19.37;14.17;;;;;;;-141.97;84.38;47538.28;5030295;28;20171;-87
2023/09/09 05:57:04;;;;;;;20.77;14.53;;;;;;;-141.97;85.03;47667.06;5029266;28;20166;-87
2023/09/09 05:59:29;;;;;;;21.13;14.27;;;;;;;-141.97;84.84;47536.38;5030404;28;20551;-87
2023/09/09 06:01:55;;;;;;;16.47;11.90;;;;;;;-141.97;82.00;47670.91;5029793;28;20293;-87
2023/09/09 06:04:20;;;;;;;15.43;10.87;;;;;;;-141.97;79.59;47434.50;5034352;28;20158;-86
2023/09/09 06:06:49;;;;;;;14.60;10.30;;;;;;;-141.97;77.99;47684.38;5032276;28;20845;-86
2023/09/09 06:09:15;;;;;;;17.60;10.50;;;;;;;-141.97;77.46;47572.91;5033881;28;20169;-86
2023/09/09 06:11:40;;;;;;;14.73;10.17;;;;;;;-141.97;77.00;47538.28;5022832;28;20239;-86
2023/09/09 06:14:06;;;;;;;19.07;10.20;;;;;;;-141.97;76.89;47570.97;5032929;28;20635;-86
2023/09/09 06:16:32;;;;;;;14.30;9.20;;;;;;;-141.97;75.93;47569.06;5034705;28;20169;-86
2023/09/09 06:18:57;;;;;;;12.17;9.20;;;;;;;-141.97;76.34;47784.34;5034678;28;20174;-87
2023/09/09 06:21:24;;;;;;;16.13;9.57;;;;;;;-141.97;77.77;47601.72;5032988;28;20352;-87
2023/09/09 06:23:49;;;;;;;13.83;8.80;;;;;;;-141.97;76.71;47446.03;5034585;28;20184;-86
2023/09/09 06:26:14;;;;;;;16.57;9.13;;;;;;;-141.97;75.82;47730.50;5033452;28;20249;-87
2023/09/09 06:28:40;;;;;;;12.60;7.70;;;;;;;-141.97;73.75;47601.72;5034393;28;20622;-87
2023/09/09 06:31:07;;;;;;;10.93;7.10;;;;;;;-141.97;71.74;47557.53;5034121;28;20162;-87
2023/09/09 06:33:32;;;;;;;13.80;7.33;;;;;;;-141.97;71.83;47449.88;5038132;28;20212;-86
2023/09/09 06:35:57;;;;;;;11.97;7.33;;;;;;;-141.97;71.24;47553.69;5040819;28;20166;-85
2023/09/09 06:38:23;;;;;;;10.70;6.20;;;;;;;-141.97;71.45;47386.47;5042106;28;20206;-85
2023/09/09 06:40:48;;;;;;;12.67;7.10;;;;;;;-141.97;71.46;47463.34;5042340;28;20680;-88
2023/09/09 06:43:17;;;;;;;10.17;6.83;;;;;;;-141.97;70.20;47743.97;5036030;28;20222;-86
2023/09/09 06:45:43;;;;;;;12.77;6.50;;;;;;;-141.97;69.19;47765.09;5035028;28;20552;-87
2023/09/09 06:48:08;;;;;;;13.90;6.20;;;;;;;-141.97;69.83;47553.69;5034219;28;20177;-88
2023/09/09 06:50:34;;;;;;;11.77;6.43;;;;;;;-141.97;69.04;47344.19;5034278;28;20216;-88
2023/09/09 06:52:59;;;;;;;11.37;6.90;;;;;;;-141.97;68.47;47401.84;5032037;28;20178;-85
2023/09/09 06:55:25;;;;;;;13.07;6.50;;;;;;;-141.97;66.12;47434.50;5031093;28;20202;-87
2023/09/09 06:57:50;;;;;;;10.00;6.47;;;;;;;-141.97;66.46;47709.38;5032224;28;20253;-86
2023/09/09 07:00:16;;;;;;;10.40;6.30;;;;;;;-141.97;65.73;47557.53;5033872;28;20253;-87
2023/09/09 07:02:41;;;;;;;11.20;6.60;;;;;;;-141.97;65.63;47517.16;5032233;28;20555;-86
2023/09/09 07:05:07;;;;;;;11.37;6.43;;;;;;;-141.97;65.02;47394.16;5033850;28;20257;-86
2023/09/09 07:07:32;;;;;;;11.10;6.77;;;;;;;-141.97;63.95;47624.78;5033827;28;20166;-86
2023/09/09 07:09:58;;;;;;;12.30;6.33;;;;;;;-141.97;64.17;47669.00;5033924;28;20166;-85
2023/09/09 07:12:24;;;;;;;11.37;7.50;;;;;;;-141.97;63.38;47561.38;5033813;28;20181;-86
2023/09/09 07:14:49;;;;;;;9.97;6.93;;;;;;;-141.97;62.12;47461.41;5032084;28;20189;-86
2023/09/09 07:17:14;;;;;;;13.60;7.63;;;;;;;-141.97;60.25;47536.38;5035598;28;20170;-86
2023/09/09 07:19:40;;;;;;;10.60;7.27;;;;;;;-141.97;59.83;47292.28;5034474;28;20547;-86
2023/09/09 07:22:06;;;;;;;10.63;6.70;;;;;;;-141.97;59.24;47409.53;5033860;28;20190;-85
2023/09/09 07:24:31;;;;;;;13.60;8.40;;;;;;;-141.97;57.69;47319.19;5032982;28;20170;-84
2023/09/09 07:26:59;;;;;;;10.53;7.10;;;;;;;-141.97;56.26;47326.88;5033076;28;20166;-86
2023/09/09 07:29:25;;;;;;;10.87;7.53;;;;;;;-141.97;55.81;47515.22;5033287;28;20223;-86
2023/09/09 07:31:50;;;;;;;11.20;7.00;;;;;;;-141.97;56.05;47442.19;5032879;28;20480;-86
2023/09/09 07:34:16;;;;;;;12.43;6.90;;;;;;;-141.97;56.96;47595.97;5033256;28;20212;-86
2023/09/09 07:36:41;;;;;;;8.80;6.83;;;;;;;-141.97;57.18;47542.16;5031261;28;20180;-85
2023/09/09 07:39:07;;;;;;;10.33;7.10;;;;;;;-141.97;55.67;47611.34;5032807;28;20257;-85
2023/09/09 07:41:32;;;;;;;11.10;6.53;;;;;;;-141.97;55.72;47526.75;5033957;28;20674;-86
2023/09/09 07:43:58;;;;;;;9.73;6.83;;;;;;;-141.97;55.02;47592.13;5039814;28;20332;-86
2023/09/09 07:46:23;;;;;;;9.10;6.40;;;;;;;-141.97;55.43;47505.63;5038411;28;20653;-85
2023/09/09 07:48:49;;;;;;;9.33;5.93;;;;;;;-141.97;55.75;47553.69;5039823;28;20223;-85
2023/09/09 07:51:14;;;;;;;7.17;5.80;;;;;;;-141.97;56.93;47526.75;5036900;28;20557;-85
2023/09/09 07:53:39;;;;;;;9.90;6.70;;;;;;;-141.97;55.47;47638.25;5037457;28;20173;-86
2023/09/09 07:56:05;;;;;;;11.00;6.63;;;;;;;-141.97;54.68;47323.03;5032537;28;20170;-86
2023/09/09 07:58:30;;;;;;;13.93;8.17;;;;;;;-141.97;53.58;47517.16;5032528;28;20181;-86
2023/09/09 08:01:06;;;;;;;12.00;6.03;;;;;;;-141.97;53.45;47494.09;5031602;28;20205;-85
2023/09/09 08:03:32;;;;;;;10.83;5.83;;;;;;;-141.97;51.57;47326.88;5032289;28;20308;-85
2023/09/09 08:06:02;;;;;;;9.53;6.03;;;;;;;-141.97;51.32;47496.00;5032786;28;20186;-86
2023/09/09 08:08:30;;;;;;;8.73;5.87;;;;;;;-141.97;51.30;47515.22;5033023;28;20540;-87
2023/09/09 08:10:56;;;;;;;12.17;5.50;;;;;;;-141.97;51.13;47480.63;5031885;28;20609;-86
2023/09/09 08:13:22;;;;;;;13.00;5.67;;;;;;;-141.97;49.10;47599.81;5031770;28;20170;-86
2023/09/09 08:15:47;;;;;;;10.63;5.90;;;;;;;-141.97;47.80;47692.06;5031817;28;20169;-85
2023/09/09 08:18:13;;;;;;;9.68;5.53;;;;;;;-141.97;46.66;47474.88;5031761;28;20173;-85
2023/09/09 08:20:39;;;;;;;6.15;4.80;;;;;;;-141.97;44.94;47503.69;5033098;28;20173;-86
2023/09/09 08:23:04;;;;;;;8.90;4.85;;;;;;;-141.97;46.33;47711.28;5032340;28;20165;-86
2023/09/09 08:25:32;;;;;;;11.82;4.97;;;;;;;-141.97;44.57;47476.78;5032956;28;20256;-87
2023/09/09 08:27:59;;;;;;;8.95;4.90;;;;;;;-141.97;43.21;47624.78;5031815;28;20181;-85
2023/09/09 08:30:25;;;;;;;8.55;5.03;;;;;;;-141.97;44.19;47469.09;5031081;28;20168;-87
2023/09/09 08:32:51;;;;;;;8.10;4.93;;;;;;;-141.97;44.08;47634.41;5030893;28;20168;-86
2023/09/09 08:35:16;;;;;;;7.30;4.90;;;;;;;-141.97;44.54;47490.25;5031793;28;20193;-86
2023/09/09 08:37:42;;;;;;;7.05;4.70;;;;;;;-141.97;42.58;47303.81;5031451;28;20231;-87
2023/09/09 08:40:08;;;;;;;7.07;4.60;;;;;;;-141.97;39.83;47436.44;5030148;28;20207;-85
2023/09/09 08:42:52;;;;;;;7.53;4.72;;;;;;;-141.97;39.17;47461.41;5030917;28;20246;-85
2023/09/09 08:45:47;;;;;;;7.28;4.35;;;;;;;-141.97;37.86;47446.03;5031938;28;20197;-86
2023/09/09 08:48:18;;;;;;;9.40;4.63;;;;;;;-141.97;38.86;47357.63;5031574;28;20160;-86
2023/09/09 08:50:47;;;;;;;13.38;4.60;;;;;;;-141.97;38.61;47424.91;5031097;28;20254;-86
2023/09/09 08:53:13;;;;;;;5.38;4.38;;;;;;;-141.97;38.15;47453.72;5031858;28;20613;-86
2023/09/09 08:55:40;;;;;;;6.03;4.22;;;;;;;-141.97;37.65;47436.44;5030424;28;20258;-86
2023/09/09 08:58:06;;;;;;;8.05;4.40;;;;;;;-141.97;36.54;47472.94;5030585;28;20172;-86
2023/09/09 09:00:36;;;;;;;7.60;4.45;;;;;;;-141.97;38.04;47459.50;5031346;28;20260;-86
2023/09/09 09:03:02;;;;;;;8.65;4.75;;;;;;;-141.97;37.71;47457.56;5031552;28;20185;-85
2023/09/09 09:05:33;;;;;;;6.40;4.60;;;;;;;-141.97;37.70;47434.50;5034107;28;20164;-86
2023/09/09 09:08:02;;;;;;;8.18;4.38;;;;;;;-141.97;37.34;47265.38;5032633;28;20172;-86
2023/09/09 09:10:28;;;;;;;7.90;5.05;;;;;;;-141.97;36.58;47449.88;5031222;28;20170;-87
2023/09/09 09:12:53;;;;;;;7.22;4.82;;;;;;;-141.97;37.23;47200.03;5032041;28;20228;-86
2023/09/09 09:15:21;;;;;;;9.05;4.97;;;;;;;-141.97;36.96;47426.81;5036039;28;20169;-84
2023/09/09 09:17:47;;;;;;;7.80;4.80;;;;;;;-141.97;37.42;47411.44;5039660;28;20215;-85
2023/09/09 09:20:33;;;;;;;6.88;4.60;;;;;;;-141.97;36.09;47421.06;5039446;28;20170;-86
2023/09/09 09:23:05;;;;;;;7.75;4.70;;;;;;;-141.97;36.01;47424.91;5032382;28;20211;-84
2023/09/09 09:25:44;;;;;;;8.80;4.82;;;;;;;-141.97;36.62;47446.03;5015367;28;20185;-85
2023/09/09 09:28:14;;;;;;;7.45;4.57;;;;;;;-141.97;34.80;47419.13;5033390;28;20168;-87
2023/09/09 09:30:40;;;;;;;9.27;4.72;;;;;;;-141.97;34.59;47369.16;5032813;28;20174;-86
2023/09/09 09:33:06;;;;;;;10.00;4.50;;;;;;;-141.97;35.22;47609.41;5032036;28;20166;-86
2023/09/09 09:35:33;;;;;;;8.60;4.40;;;;;;;-141.97;34.30;47428.75;5033169;28;20180;-86
2023/09/09 09:38:17;;;;;;;9.25;4.57;;;;;;;-141.97;34.39;47430.66;5032649;28;20162;-86
2023/09/09 09:40:43;;;;;;;6.22;4.10;;;;;;;-141.97;34.12;47680.53;5035456;28;20174;-86
2023/09/09 09:43:20;;;;;;;4.65;4.20;;;;;;;-141.97;33.82;47419.13;5032942;28;20229;-86
2023/09/09 09:45:48;;;;;;;6.75;4.55;;;;;;;-141.97;33.92;47396.06;5031503;28;20293;-85
2023/09/09 09:48:26;;;;;;;6.63;4.40;;;;;;;-141.97;34.12;47288.44;5031633;28;20176;-86
2023/09/09 09:50:53;;;;;;;6.90;4.43;;;;;;;-141.97;34.07;47305.75;5034484;28;20254;-86
2023/09/09 09:53:18;;;;;;;5.30;4.15;;;;;;;-141.97;32.85;47184.66;5037636;28;20164;-87
2023/09/09 09:55:44;;;;;;;7.45;4.05;;;;;;;-141.97;33.03;47717.06;5040773;28;20696;-85
2023/09/09 09:58:13;;;;;;;5.30;4.32;;;;;;;-141.97;33.50;47376.84;5038013;28;20166;-85
2023/09/09 10:00:39;;;;;;;7.82;4.72;;;;;;;-141.97;32.85;47405.69;5022967;28;20236;-86
2023/09/09 10:03:06;;;;;;;14.20;5.82;;;;;;;-141.97;30.54;47628.63;5032980;28;20175;-87
2023/09/09 10:05:33;;;;;;;6.68;4.43;;;;;;;-141.97;31.09;47447.97;5031781;28;20622;-86
2023/09/09 10:08:13;;;;;;;5.22;3.90;;;;;;;-141.97;31.55;47396.06;5032217;28;20166;-85
2023/09/09 10:10:46;;;;;;;7.68;4.20;;;;;;;-141.97;31.75;47419.13;5031374;28;20230;-87
2023/09/09 10:13:22;;;;;;;8.10;3.80;;;;;;;-141.97;31.81;47315.34;5032467;28;20185;-87
2023/09/09 10:15:49;;;;;;;4.47;3.90;;;;;;;-141.97;31.19;47430.66;5040062;28;20238;-86
2023/09/09 10:18:16;;;;;;;5.57;3.70;;;;;;;-141.97;31.46;47661.31;5035770;28;20188;-88
2023/09/09 10:20:48;;;;;;;7.15;4.03;;;;;;;-141.97;31.61;47622.88;5033045;28;20163;-87
2023/09/09 10:23:15;;;;;;;6.28;3.95;;;;;;;-141.97;31.53;47484.47;5032880;28;20180;-86
2023/09/09 10:25:42;;;;;;;4.93;4.20;;;;;;;-141.97;31.52;47313.44;5034191;28;20961;-87
2023/09/09 10:28:12;;;;;;;7.53;4.15;;;;;;;-141.97;33.32;47547.91;5032792;28;20182;-86
2023/09/09 10:30:38;;;;;;;4.70;4.00;;;;;;;-141.97;32.85;47428.75;5000007;28;20558;-86
2023/09/09 10:33:06;;;;;;;5.88;4.57;;;;;;;-141.97;32.17;47478.72;5032960;28;20174;-86
2023/09/09 10:35:33;;;;;;;6.60;4.25;;;;;;;-141.97;31.63;47384.53;5034450;28;20233;-86
2023/09/09 10:38:02;;;;;;;8.05;4.40;;;;;;;-141.97;31.58;47411.44;5034438;28;20164;-86
2023/09/09 10:40:27;;;;;;;6.80;3.95;;;;;;;-141.97;31.60;47398.00;5032983;28;20166;-85
2023/09/09 10:42:53;;;;;;;6.28;4.32;;;;;;;-141.97;31.57;47188.50;5031249;28;20224;-87
2023/09/09 10:45:30;;;;;;;8.05;4.90;;;;;;;-141.97;31.90;47359.56;5013322;28;20216;-87
2023/09/09 10:47:56;;;;;;;6.68;4.22;;;;;;;-141.97;31.88;47436.44;5013844;28;20170;-88
2023/09/09 10:50:22;;;;;;;9.23;4.20;;;;;;;-141.97;31.03;47392.22;5031680;28;20261;-86
2023/09/09 10:53:11;;;;;;;7.80;4.25;;;;;;;-141.97;31.09;47634.41;5033394;28;20677;-86
2023/09/09 10:55:37;;;;;;;7.55;4.47;;;;;;;-141.97;31.02;47321.13;5036076;28;20165;-86
2023/09/09 10:58:05;;;;;;;5.07;3.97;;;;;;;-141.97;30.66;47307.66;5034156;28;20628;-85
2023/09/09 11:00:41;;;;;;;6.35;4.15;;;;;;;-141.97;30.06;47422.97;5031882;28;20177;-85
2023/09/09 11:03:11;;;;;;;6.05;3.78;;;;;;;-141.97;30.40;47253.84;5033345;28;20178;-84
2023/09/09 11:06:07;;;;;;;4.97;4.05;;;;;;;-141.97;30.03;47388.38;5034142;28;20197;-83
2023/09/09 11:08:42;;;;;;;7.70;3.97;;;;;;;-141.97;30.19;47415.28;5021712;28;20157;-84